Time;durP1;ratioP1;P1;durP2;ratioP2;P2;SDS_P1;SDS_P2;PMS_P1;PMS_P2;Temp;Humidity;BMP_temperature;BMP_pressure;BME280_temperature;BME280_humidity;BME280_pressure;Samples;Min_cycle;Max_cycle;Signal;HPM_P1;HPM_P2
2021/11/15 00:01:41;;;;;;;48.10;24.70;;;;;;;4.54;81.50;101153.27;229100;1199;141827;-67
2021/11/15 00:06:43;;;;;;;55.10;28.20;;;;;;;4.56;81.48;101155.88;227971;1199;140347;-69
2021/11/15 00:11:46;;;;;;;63.40;32.50;;;;;;;4.51;81.36;101164.27;227810;1200;140646;-69
2021/11/15 00:16:49;;;;;;;51.30;26.90;;;;;;;4.44;81.27;101174.02;227525;1199;139069;-70
2021/11/15 00:21:52;;;;;;;58.20;30.20;;;;;;;4.42;81.12;101177.46;226468;1200;141923;-73
2021/11/15 00:26:54;;;;;;;57.90;28.20;;;;;;;4.35;81.36;101174.54;227294;1199;206317;-72
2021/11/15 00:31:57;;;;;;;52.60;23.90;;;;;;;4.32;81.11;101180.33;227572;1200;140670;-70
2021/11/15 00:37:00;;;;;;;46.90;25.00;;;;;;;4.33;81.24;101180.23;226686;1199;140448;-69
2021/11/15 00:42:02;;;;;;;46.10;22.70;;;;;;;4.30;81.07;101177.02;227196;1199;141070;-71
2021/11/15 00:47:09;;;;;;;42.00;21.10;;;;;;;4.26;81.11;101175.57;227438;1200;141160;-70
2021/11/15 00:52:13;;;;;;;48.20;23.60;;;;;;;4.23;80.77;101177.94;226724;1200;140202;-69
2021/11/15 00:57:16;;;;;;;50.00;23.50;;;;;;;4.23;80.76;101175.00;227750;1200;140613;-70
2021/11/15 01:02:21;;;;;;;41.90;23.40;;;;;;;4.18;80.94;101181.20;226669;1200;163107;-69
2021/11/15 01:07:25;;;;;;;42.90;24.20;;;;;;;4.15;80.97;101180.37;226765;1200;141224;-70
2021/11/15 01:12:27;;;;;;;39.00;21.30;;;;;;;4.18;80.98;101179.88;228357;1199;141276;-73
2021/11/15 01:17:30;;;;;;;43.40;24.00;;;;;;;4.14;81.09;101180.48;226636;1200;139229;-70
2021/11/15 01:22:36;;;;;;;52.90;24.20;;;;;;;4.11;81.00;101185.52;227670;1200;139213;-74
2021/11/15 01:27:39;;;;;;;49.30;25.40;;;;;;;4.15;81.08;101186.34;227947;1199;140824;-74
2021/11/15 01:32:47;;;;;;;47.30;25.80;;;;;;;4.18;81.15;101187.64;228676;1200;140448;-70
2021/11/15 01:37:54;;;;;;;46.20;20.60;;;;;;;4.21;81.20;101190.52;228313;1200;139219;-70
2021/11/15 01:42:57;;;;;;;61.70;26.90;;;;;;;4.28;81.16;101192.52;227925;1199;139693;-73
2021/11/15 01:48:04;;;;;;;46.40;23.20;;;;;;;4.32;80.93;101196.85;228893;1199;140362;-70
2021/11/15 01:53:09;;;;;;;43.30;21.10;;;;;;;4.32;81.10;101198.61;229070;1200;140052;-71
2021/11/15 01:58:15;;;;;;;38.30;20.60;;;;;;;4.34;81.05;101198.45;228494;1199;140278;-70
2021/11/15 02:03:23;;;;;;;41.00;21.90;;;;;;;4.36;80.58;101184.46;227792;1200;141613;-71
2021/11/15 02:08:31;;;;;;;35.40;21.90;;;;;;;4.36;80.78;101181.52;227218;1200;141370;-70
2021/11/15 02:13:34;;;;;;;32.90;18.50;;;;;;;4.37;80.84;101179.95;226601;1200;162335;-71
2021/11/15 02:18:41;;;;;;;34.60;19.30;;;;;;;4.36;80.59;101180.45;226920;1200;152792;-72
2021/11/15 02:23:45;;;;;;;35.80;19.20;;;;;;;4.39;80.66;101179.92;227448;1200;140570;-71
2021/11/15 02:28:50;;;;;;;28.90;18.60;;;;;;;4.37;80.53;101180.85;226746;1199;151132;-69
2021/11/15 02:33:55;;;;;;;25.80;18.10;;;;;;;4.33;80.53;101181.14;226579;1200;139541;-70
2021/11/15 02:39:41;;;;;;;34.50;19.10;;;;;;;4.30;80.46;101181.27;227211;1199;141288;-70
2021/11/15 02:44:51;;;;;;;32.40;17.10;;;;;;;4.30;80.40;101181.05;227182;1199;139846;-70
2021/11/15 02:49:56;;;;;;;25.00;16.70;;;;;;;4.26;80.51;101184.02;226766;1199;140264;-70
2021/11/15 02:55:02;;;;;;;27.40;14.10;;;;;;;4.24;80.33;101184.21;226929;1199;139196;-67
2021/11/15 03:00:40;;;;;;;34.60;19.70;;;;;;;4.25;80.13;101188.36;226962;1199;139446;-67
2021/11/15 03:05:46;;;;;;;34.10;18.50;;;;;;;4.20;80.15;101189.00;226996;1200;139500;-67
2021/11/15 03:10:58;;;;;;;26.70;14.10;;;;;;;4.18;80.34;101188.86;226504;1200;140113;-72
2021/11/15 03:16:02;;;;;;;24.90;16.10;;;;;;;4.19;80.27;101192.23;227841;1200;139214;-72
2021/11/15 03:21:20;;;;;;;27.50;18.70;;;;;;;4.24;80.55;101198.32;227649;1200;140391;-75
2021/11/15 03:26:43;;;;;;;22.50;13.50;;;;;;;4.29;80.52;101194.39;227861;1199;138916;-75
2021/11/15 03:31:48;;;;;;;24.60;14.80;;;;;;;4.29;80.07;101199.81;227927;1200;141114;-75
2021/11/15 03:37:06;;;;;;;26.80;17.00;;;;;;;4.31;79.96;101197.54;228902;1199;140198;-75
2021/11/15 03:42:09;;;;;;;;;;;;;;;4.35;80.23;101202.91;228718;1199;139712;-75
2021/11/15 03:47:12;;;;;;;26.30;15.60;;;;;;;4.37;80.22;101203.98;229529;1199;125762;-75
2021/11/15 03:52:16;;;;;;;30.70;16.00;;;;;;;4.40;80.22;101197.69;228469;1200;140169;-77
2021/11/15 03:57:18;;;;;;;31.10;18.50;;;;;;;4.49;79.81;101201.33;229113;1199;139773;-77
2021/11/15 04:02:24;;;;;;;28.10;15.30;;;;;;;4.52;79.63;101199.66;228409;1200;141532;-70
2021/11/15 04:07:33;;;;;;;28.80;18.10;;;;;;;4.48;79.79;101200.60;228218;1200;144178;-74
2021/11/15 04:12:37;;;;;;;37.00;17.40;;;;;;;4.41;79.24;101196.81;228334;1199;139217;-71
2021/11/15 04:17:43;;;;;;;33.20;17.80;;;;;;;4.45;79.47;101202.30;228178;1199;140296;-70
2021/11/15 04:22:46;;;;;;;26.90;17.20;;;;;;;4.44;79.36;101204.15;227133;1199;141231;-70
2021/11/15 04:27:49;;;;;;;29.90;15.60;;;;;;;4.37;79.46;101212.00;226588;1200;139432;-70
2021/11/15 04:32:53;;;;;;;28.00;16.50;;;;;;;4.33;79.26;101214.25;226305;1200;140538;-69
2021/11/15 04:37:56;;;;;;;23.40;14.70;;;;;;;4.30;79.57;101209.05;226709;1200;140178;-71
2021/11/15 04:42:59;;;;;;;33.50;16.70;;;;;;;4.25;79.60;101208.86;226631;1200;139861;-69
2021/11/15 04:48:03;;;;;;;24.60;15.30;;;;;;;4.27;79.53;101208.50;226803;1200;140614;-70
2021/11/15 04:53:07;;;;;;;32.90;17.60;;;;;;;4.29;79.50;101210.45;226915;1199;140106;-71
2021/11/15 04:58:10;;;;;;;32.90;15.60;;;;;;;4.25;79.67;101210.11;226628;1199;139317;-70
2021/11/15 05:03:13;;;;;;;29.40;16.80;;;;;;;4.21;79.78;101210.52;226935;1199;139277;-72
2021/11/15 05:08:18;;;;;;;30.20;18.00;;;;;;;4.23;79.62;101215.42;227712;1200;140011;-72
2021/11/15 05:13:22;;;;;;;43.00;21.70;;;;;;;4.22;79.68;101216.80;227394;1199;140619;-73
2021/11/15 05:18:24;;;;;;;35.10;21.60;;;;;;;4.19;79.85;101217.43;226662;1199;139467;-73
2021/11/15 05:23:35;;;;;;;62.70;29.80;;;;;;;4.17;79.74;101217.48;228075;1199;140256;-73
2021/11/15 05:28:39;;;;;;;70.10;28.40;;;;;;;4.20;79.68;101221.27;226306;1199;140219;-70
2021/11/15 05:33:42;;;;;;;70.50;24.70;;;;;;;4.20;79.68;101223.38;226415;1200;139555;-69
2021/11/15 05:38:57;;;;;;;34.90;20.00;;;;;;;4.19;79.75;101228.05;227318;1199;140020;-69
2021/11/15 05:44:01;;;;;;;35.00;19.00;;;;;;;4.18;79.56;101229.01;228490;1200;140619;-70
2021/11/15 05:49:04;;;;;;;61.70;29.60;;;;;;;4.19;79.39;101228.39;229068;1199;140119;-70
2021/11/15 05:54:06;;;;;;;63.40;32.40;;;;;;;4.18;79.51;101231.84;229078;1199;139797;-71
2021/11/15 05:59:10;;;;;;;33.30;18.80;;;;;;;4.18;79.51;101234.58;229212;1199;140994;-70
2021/11/15 06:04:13;;;;;;;32.40;18.90;;;;;;;4.26;79.40;101240.87;227847;1199;164745;-71
2021/11/15 06:09:18;;;;;;;42.90;22.40;;;;;;;4.25;79.54;101242.90;227005;1199;140578;-71
2021/11/15 06:14:21;;;;;;;30.20;17.90;;;;;;;4.23;79.44;101253.46;228131;1199;140889;-71
2021/11/15 06:19:25;;;;;;;33.30;20.20;;;;;;;4.19;79.32;101262.66;227362;1199;139920;-69
2021/11/15 06:24:38;;;;;;;33.90;16.00;;;;;;;4.20;79.26;101272.10;228318;1199;140282;-69
2021/11/15 06:29:57;;;;;;;34.30;18.10;;;;;;;4.20;79.47;101271.41;226607;1199;140740;-68
2021/11/15 06:35:03;;;;;;;27.70;18.00;;;;;;;4.21;79.47;101282.58;227035;1200;139280;-69
2021/11/15 06:40:08;;;;;;;36.50;18.70;;;;;;;4.19;79.43;101287.80;227034;1200;139305;-68
2021/11/15 06:45:12;;;;;;;32.80;18.60;;;;;;;4.21;79.33;101291.65;226860;1199;140492;-68
2021/11/15 06:50:19;;;;;;;29.90;19.20;;;;;;;4.25;79.56;101290.79;226753;1199;140743;-68
2021/11/15 06:55:23;;;;;;;34.10;16.90;;;;;;;4.25;79.47;101293.68;226746;1199;139684;-71
2021/11/15 07:00:29;;;;;;;35.70;20.10;;;;;;;4.25;79.25;101295.17;227083;1199;139487;-70
2021/11/15 07:05:35;;;;;;;37.80;20.60;;;;;;;4.27;79.64;101299.31;228128;1199;139874;-69
2021/11/15 07:10:59;;;;;;;35.10;19.40;;;;;;;4.28;79.63;101301.52;227358;1199;141288;-70
2021/11/15 07:16:02;;;;;;;32.20;17.90;;;;;;;4.28;79.40;101304.33;226585;1200;140153;-71
2021/11/15 07:21:06;;;;;;;30.60;19.40;;;;;;;4.30;79.45;101306.70;227854;1199;140366;-70
2021/11/15 07:26:09;;;;;;;32.60;21.30;;;;;;;4.25;79.30;101302.23;226983;1199;140350;-70
2021/11/15 07:31:11;;;;;;;32.80;20.40;;;;;;;4.20;79.45;101304.48;226444;1200;140140;-71
2021/11/15 07:36:14;;;;;;;40.30;22.40;;;;;;;4.21;79.45;101304.66;229205;1199;140442;-71
2021/11/15 07:41:19;;;;;;;40.00;23.40;;;;;;;4.23;79.68;101308.85;229253;1199;141474;-71
2021/11/15 07:46:26;;;;;;;41.50;23.00;;;;;;;4.24;79.69;101307.70;229223;1199;142707;-71
2021/11/15 07:51:33;;;;;;;49.20;26.50;;;;;;;4.30;79.70;101312.18;227594;1199;140950;-70
2021/11/15 07:56:36;;;;;;;42.50;22.30;;;;;;;4.37;79.94;101320.08;229155;1199;140811;-70
2021/11/15 08:01:47;;;;;;;38.90;20.20;;;;;;;4.41;80.18;101321.98;229168;1199;141127;-70
2021/11/15 08:06:49;;;;;;;41.40;18.70;;;;;;;4.48;80.05;101319.58;227285;1199;140304;-72
2021/11/15 08:11:55;;;;;;;41.00;22.50;;;;;;;4.57;80.10;101319.08;226750;1199;142280;-72
2021/11/15 08:16:58;;;;;;;33.70;20.20;;;;;;;4.65;80.25;101318.77;228163;1199;142863;-71
2021/11/15 08:22:03;;;;;;;33.30;18.10;;;;;;;4.67;80.20;101316.17;228311;1199;140936;-72
2021/11/15 08:27:06;;;;;;;37.70;20.80;;;;;;;4.69;80.23;101314.15;226205;1199;140758;-72
2021/11/15 08:32:09;;;;;;;39.70;21.60;;;;;;;4.78;80.01;101311.19;226946;1199;140105;-71
2021/11/15 08:37:12;;;;;;;36.30;21.70;;;;;;;4.81;79.98;101308.55;226544;1199;139966;-72
2021/11/15 08:42:15;;;;;;;45.80;19.10;;;;;;;4.79;80.26;101311.23;226867;1200;139950;-70
2021/11/15 08:47:18;;;;;;;30.60;15.30;;;;;;;4.79;80.14;101313.51;226872;1199;140161;-70
2021/11/15 08:52:55;;;;;;;;;;;;;;;;;;;;;
2021/11/15 08:58:00;;;;;;;40.20;20.60;;;;;;;4.85;79.99;101315.16;226450;1199;142263;-70
2021/11/15 09:03:11;;;;;;;29.00;17.60;;;;;;;4.86;80.09;101317.77;227495;1199;139179;-71
2021/11/15 09:08:19;;;;;;;35.10;17.20;;;;;;;4.89;80.17;101322.89;226538;1199;140611;-72
2021/11/15 09:13:23;;;;;;;36.80;22.00;;;;;;;4.98;79.82;101321.36;226584;1199;232996;-70
2021/11/15 09:18:35;;;;;;;38.20;20.60;;;;;;;5.04;80.05;101320.86;227241;1199;140876;-68
2021/11/15 09:23:40;;;;;;;31.60;19.80;;;;;;;5.12;80.29;101322.28;227012;1200;248959;-72
2021/11/15 09:28:46;;;;;;;36.10;18.90;;;;;;;5.15;80.23;101323.48;228150;1199;139689;-70
2021/11/15 09:33:51;;;;;;;32.40;18.30;;;;;;;5.30;80.28;101319.65;226711;1200;140772;-71
2021/11/15 09:38:57;;;;;;;34.40;20.30;;;;;;;5.37;80.07;101321.13;228364;1199;140030;-73
2021/11/15 09:44:00;;;;;;;31.70;20.80;;;;;;;5.42;79.70;101322.42;229035;1199;140386;-74
2021/11/15 09:49:18;;;;;;;29.60;17.70;;;;;;;5.53;79.75;101320.32;229219;1199;140761;-73
2021/11/15 09:54:23;;;;;;;40.30;21.50;;;;;;;5.69;79.39;101317.14;228392;1199;140530;-70
2021/11/15 09:59:28;;;;;;;46.80;23.70;;;;;;;5.84;79.72;101321.40;227327;1199;140545;-71
2021/11/15 10:04:32;;;;;;;39.30;21.70;;;;;;;5.90;78.93;101313.71;228354;1199;140683;-69
2021/11/15 10:09:39;;;;;;;42.50;23.20;;;;;;;5.94;78.91;101309.95;227177;1200;140525;-72
2021/11/15 10:15:11;;;;;;;39.60;23.20;;;;;;;6.03;78.84;101309.83;226595;1199;140243;-71
2021/11/15 10:20:14;;;;;;;41.40;24.30;;;;;;;5.99;78.73;101311.65;227841;1199;140115;-71
2021/11/15 10:26:01;;;;;;;;;;;;;;;;;;;;;
2021/11/15 10:31:24;;;;;;;45.20;22.30;;;;;;;6.09;78.78;101313.05;226750;1199;140447;-70
2021/11/15 10:37:15;;;;;;;46.80;26.70;;;;;;;6.14;78.95;101320.95;226608;1200;140333;-70
2021/11/15 10:42:41;;;;;;;40.70;22.90;;;;;;;6.08;78.36;101319.69;225930;1200;139586;-68
2021/11/15 10:48:21;;;;;;;;;;;;;;;;;;;;;
2021/11/15 10:53:55;;;;;;;43.10;24.30;;;;;;;6.01;78.20;101316.45;226195;1200;140810;-71
2021/11/15 10:59:16;;;;;;;38.30;23.20;;;;;;;5.96;78.68;101307.20;227608;1199;141169;-68
2021/11/15 11:04:26;;;;;;;38.90;22.50;;;;;;;5.94;78.56;101305.09;227152;1199;140418;-68
2021/11/15 11:09:37;;;;;;;46.70;26.10;;;;;;;6.00;78.48;101304.33;226937;1199;141801;-75
2021/11/15 11:14:42;;;;;;;50.20;24.60;;;;;;;5.97;78.50;101304.14;227812;1199;140355;-71
2021/11/15 11:20:48;;;;;;;37.80;21.50;;;;;;;5.95;78.85;101299.57;227606;1199;139805;-72
2021/11/15 11:25:33;;;;;;;50.90;24.70;;;;;;;5.92;78.33;101290.89;228583;1199;140942;-72
2021/11/15 11:30:37;;;;;;;42.50;24.10;;;;;;;5.88;78.49;101293.06;226798;1199;141437;-73
2021/11/15 11:36:00;;;;;;;43.70;21.80;;;;;;;5.90;78.41;101291.29;227186;1200;140168;-72
2021/11/15 11:41:03;;;;;;;45.10;25.10;;;;;;;5.95;78.71;101287.39;229087;1199;140264;-73
2021/11/15 11:46:06;;;;;;;42.10;22.10;;;;;;;5.92;78.50;101280.91;229005;1199;139080;-73
2021/11/15 11:51:46;;;;;;;39.00;21.10;;;;;;;5.96;78.51;101277.94;228697;1199;138816;-72
2021/11/15 11:57:39;;;;;;;;;;;;;;;;;;;;;
2021/11/15 12:02:45;;;;;;;45.80;26.80;;;;;;;6.14;78.56;101262.94;228957;1199;141229;-73
2021/11/15 12:08:13;;;;;;;48.00;24.70;;;;;;;6.20;78.76;101258.72;229157;1199;139805;-73
2021/11/15 12:13:25;;;;;;;46.90;24.60;;;;;;;6.26;78.65;101249.73;226804;1199;140395;-72
2021/11/15 12:18:33;;;;;;;46.00;23.20;;;;;;;6.31;78.61;101249.91;226496;1199;139761;-72
2021/11/15 12:24:50;;;;;;;54.90;25.70;;;;;;;6.27;78.52;101248.52;228036;1199;139835;-73
2021/11/15 12:30:28;;;;;;;55.10;26.90;;;;;;;6.22;78.07;101245.55;227824;1199;139853;-72
2021/11/15 12:36:08;;;;;;;51.40;29.10;;;;;;;6.25;78.08;101229.55;227208;1200;139790;-72
2021/11/15 12:41:42;;;;;;;39.10;23.80;;;;;;;6.26;78.44;101237.36;227100;1200;143146;-71
2021/11/15 12:47:18;;;;;;;40.40;24.80;;;;;;;6.26;78.26;101243.69;226642;1200;141271;-71
2021/11/15 12:52:34;;;;;;;48.20;25.50;;;;;;;6.26;78.38;101247.13;226705;1199;142309;-70
2021/11/15 12:57:52;;;;;;;49.90;24.90;;;;;;;6.23;78.54;101240.31;227216;1200;141272;-72
2021/11/15 13:02:58;;;;;;;57.40;26.30;;;;;;;6.18;78.33;101236.68;226634;1199;140417;-69
2021/11/15 13:08:04;;;;;;;64.80;29.00;;;;;;;6.19;78.62;101232.92;226709;1200;141336;-72
2021/11/15 13:13:56;;;;;;;49.10;23.60;;;;;;;6.19;78.58;101235.13;227284;1199;141305;-72
2021/11/15 13:19:03;;;;;;;54.50;27.40;;;;;;;6.18;78.58;101239.66;226600;1199;151068;-72
2021/11/15 13:24:11;;;;;;;59.90;28.60;;;;;;;6.21;78.56;101242.41;227827;1199;142094;-72
2021/11/15 13:29:26;;;;;;;48.20;24.90;;;;;;;6.18;78.73;101245.13;226937;1197;139653;-72
2021/11/15 13:34:55;;;;;;;53.30;21.80;;;;;;;6.18;78.64;101242.18;226904;1199;140192;-73
2021/11/15 13:40:02;;;;;;;56.40;27.20;;;;;;;6.20;78.63;101236.67;227121;1199;140599;-72
2021/11/15 13:45:12;;;;;;;51.60;26.90;;;;;;;6.18;78.72;101232.78;226895;1200;141187;-72
2021/11/15 13:50:16;;;;;;;52.40;24.70;;;;;;;6.15;78.58;101235.63;226991;1199;140468;-72
2021/11/15 13:55:18;;;;;;;60.50;29.60;;;;;;;6.14;78.55;101234.34;227898;1200;140011;-73
2021/11/15 14:00:22;;;;;;;58.30;30.40;;;;;;;6.14;78.43;101234.64;229138;1199;140235;-74
2021/11/15 14:05:24;;;;;;;59.10;30.10;;;;;;;6.12;78.34;101238.21;229137;1199;141006;-75
2021/11/15 14:11:08;;;;;;;50.40;25.00;;;;;;;6.12;78.43;101239.12;227878;1199;139585;-70
2021/11/15 14:16:17;;;;;;;54.00;29.20;;;;;;;6.14;78.62;101245.96;226619;1200;140172;-73
2021/11/15 14:21:36;;;;;;;;;;;;;;;;;;;;;
2021/11/15 14:27:02;;;;;;;55.30;27.50;;;;;;;6.11;78.47;101248.84;228054;1199;139364;-72
2021/11/15 14:32:40;;;;;;;;;;;;;;;;;;;;;
2021/11/15 14:37:42;;;;;;;66.90;31.20;;;;;;;6.07;78.80;101258.20;227065;1200;141826;-73
2021/11/15 14:42:48;;;;;;;60.70;30.20;;;;;;;6.00;78.69;101261.26;227378;1199;140291;-72
2021/11/15 14:47:52;;;;;;;60.60;30.50;;;;;;;5.95;78.52;101268.20;227488;1199;139744;-73
2021/11/15 14:53:07;;;;;;;76.50;32.60;;;;;;;5.91;79.18;101265.29;227158;1199;140940;-70
2021/11/15 14:58:30;;;;;;;73.80;32.50;;;;;;;5.88;79.05;101265.08;227090;1199;139310;-72
2021/11/15 15:03:57;;;;;;;60.00;27.40;;;;;;;5.82;79.13;101258.14;226437;1199;139250;-72
2021/11/15 15:09:01;;;;;;;60.00;31.10;;;;;;;5.84;79.27;101262.72;227259;1199;139778;-72
2021/11/15 15:14:28;;;;;;;65.00;30.90;;;;;;;5.84;79.15;101262.68;226617;1199;140275;-72
2021/11/15 15:19:37;;;;;;;66.90;29.60;;;;;;;5.80;79.22;101261.92;227959;1200;140540;-72
2021/11/15 15:24:48;;;;;;;67.60;31.70;;;;;;;5.82;79.34;101254.26;227661;1199;139941;-72
2021/11/15 15:30:08;;;;;;;59.20;28.10;;;;;;;5.83;79.35;101248.30;226818;1200;140478;-71
2021/11/15 15:35:18;;;;;;;59.80;32.90;;;;;;;5.77;79.23;101246.86;227236;1199;139864;-73
2021/11/15 15:40:48;;;;;;;61.20;36.50;;;;;;;5.74;79.64;101242.77;227945;1192;139683;-72
2021/11/15 15:45:52;;;;;;;79.50;37.60;;;;;;;5.74;79.50;101247.98;229301;1200;141405;-74
2021/11/15 15:50:55;;;;;;;61.10;32.60;;;;;;;5.71;79.58;101253.67;229058;1199;140493;-74
2021/11/15 15:55:59;;;;;;;62.30;33.10;;;;;;;5.76;79.43;101259.27;229266;1199;141116;-74
2021/11/15 16:01:36;;;;;;;71.90;37.50;;;;;;;5.82;79.14;101264.30;229249;1199;139583;-75
2021/11/15 16:06:44;;;;;;;64.70;32.60;;;;;;;5.85;79.78;101267.48;229186;1199;140006;-73
2021/11/15 16:12:07;;;;;;;63.40;32.10;;;;;;;5.90;79.34;101268.52;229002;1199;139878;-74
2021/11/15 16:17:14;;;;;;;78.40;35.00;;;;;;;6.01;79.44;101272.08;228378;1199;140365;-71
2021/11/15 16:22:21;;;;;;;68.20;33.90;;;;;;;6.06;79.56;101271.71;227893;1199;140469;-69
2021/11/15 16:27:35;;;;;;;63.30;31.20;;;;;;;6.04;79.59;101270.69;227264;1200;139479;-71
2021/11/15 16:33:03;;;;;;;60.00;30.60;;;;;;;6.05;79.56;101271.31;226383;1200;139553;-70
2021/11/15 16:38:17;;;;;;;63.10;29.40;;;;;;;6.06;79.56;101273.46;227499;1200;139584;-73
2021/11/15 16:43:29;;;;;;;62.30;29.80;;;;;;;6.05;79.75;101264.27;226953;1200;139586;-72
2021/11/15 16:48:33;;;;;;;65.50;31.20;;;;;;;6.05;79.73;101256.41;226831;1200;139904;-71
2021/11/15 16:53:39;;;;;;;70.30;32.80;;;;;;;6.07;79.44;101259.95;226692;1200;142950;-70
2021/11/15 16:58:43;;;;;;;59.90;31.50;;;;;;;6.07;79.81;101257.71;227084;1200;142470;-70
2021/11/15 17:03:47;;;;;;;72.70;31.80;;;;;;;6.04;79.84;101257.25;226912;1193;140396;-71
2021/11/15 17:08:51;;;;;;;68.10;33.80;;;;;;;6.06;79.99;101252.02;226536;1200;140260;-69
2021/11/15 17:14:10;;;;;;;67.50;33.30;;;;;;;6.09;79.90;101253.36;226905;1200;139744;-71
2021/11/15 17:19:16;;;;;;;51.50;30.10;;;;;;;6.15;79.75;101253.84;226691;1200;141254;-69
2021/11/15 17:24:19;;;;;;;39.60;20.90;;;;;;;6.10;79.74;101252.11;227062;1200;141892;-70
2021/11/15 17:29:24;;;;;;;71.80;34.80;;;;;;;6.06;79.86;101247.52;227664;1199;140642;-70
2021/11/15 17:34:27;;;;;;;68.40;35.40;;;;;;;6.13;80.07;101239.14;227565;1200;140344;-70
2021/11/15 17:39:31;;;;;;;73.90;35.10;;;;;;;6.21;79.94;101242.05;226262;1200;140386;-70
2021/11/15 17:44:34;;;;;;;72.00;32.50;;;;;;;6.22;79.99;101241.71;227917;1200;139539;-71
2021/11/15 17:49:41;;;;;;;74.90;32.50;;;;;;;6.21;80.32;101234.44;228116;1200;139441;-72
2021/11/15 18:00:54;;;;;;;80.40;39.00;;;;;;;6.28;80.03;101244.41;227728;1200;141845;-71
2021/11/15 18:06:46;;;;;;;87.50;41.70;;;;;;;6.24;79.90;101239.69;229067;1199;139290;-73
2021/11/15 18:11:52;;;;;;;83.50;36.40;;;;;;;6.25;80.16;101238.53;228891;1199;140862;-72
2021/11/15 18:17:27;;;;;;;88.30;39.90;;;;;;;6.28;80.17;101234.33;226481;1200;140293;-70
2021/11/15 18:22:53;;;;;;;78.60;39.10;;;;;;;6.33;80.50;101229.58;227354;1200;140720;-70
2021/11/15 18:27:56;;;;;;;71.80;35.40;;;;;;;6.36;80.51;101231.09;226261;1200;139690;-70
2021/11/15 18:33:00;;;;;;;85.80;42.20;;;;;;;6.41;80.15;101235.13;227641;1200;140068;-70
2021/11/15 18:38:08;;;;;;;74.50;35.10;;;;;;;6.40;80.29;101234.25;227725;1200;139614;-70
2021/11/15 18:43:20;;;;;;;81.40;36.30;;;;;;;6.32;80.15;101229.11;226834;1200;140312;-69
2021/11/15 18:49:09;;;;;;;97.40;42.20;;;;;;;6.25;79.73;101221.78;226963;1200;141179;-72
2021/11/15 18:54:44;;;;;;;91.00;40.80;;;;;;;6.19;80.24;101214.51;226856;1200;139463;-68
2021/11/15 19:00:11;;;;;;;88.30;35.90;;;;;;;6.18;80.30;101214.11;226917;1200;140279;-71
2021/11/15 19:05:19;;;;;;;67.80;32.40;;;;;;;6.20;79.92;101216.46;227858;1198;140329;-70
2021/11/15 19:10:43;;;;;;;;;;;;;;;6.17;80.16;101216.66;226628;1200;140587;-70
2021/11/15 19:15:51;;;;;;;86.30;37.30;;;;;;;6.11;80.74;101228.84;228170;1200;125919;-69
2021/11/15 19:20:56;;;;;;;77.20;34.60;;;;;;;6.13;80.54;101234.05;227306;1199;139412;-72
2021/11/15 19:26:21;;;;;;;78.10;38.80;;;;;;;6.19;80.65;101237.64;226452;1200;142854;-71
2021/11/15 19:31:27;;;;;;;62.50;31.80;;;;;;;6.18;80.37;101235.66;227285;1200;152413;-71
2021/11/15 19:36:35;;;;;;;71.10;31.60;;;;;;;6.16;80.09;101240.30;226970;1199;141140;-72
2021/11/15 19:41:58;;;;;;;;;;;;;;;;;;;;;
2021/11/15 19:47:05;;;;;;;49.80;26.20;;;;;;;6.11;80.12;101242.08;228153;1200;139627;-71
2021/11/15 19:52:11;;;;;;;60.20;31.10;;;;;;;6.09;80.32;101242.09;227377;1200;140990;-72
2021/11/15 19:57:35;;;;;;;69.50;34.70;;;;;;;6.12;79.99;101236.11;229102;1199;142020;-72
2021/11/15 20:02:38;;;;;;;80.40;35.70;;;;;;;6.12;80.03;101223.73;229305;1199;139200;-71
2021/11/15 20:07:47;;;;;;;60.40;30.40;;;;;;;6.14;80.04;101218.02;228914;1199;141002;-70
2021/11/15 20:12:51;;;;;;;74.00;31.40;;;;;;;6.23;79.92;101222.21;227943;1199;209084;-69
2021/11/15 20:17:57;;;;;;;67.80;35.00;;;;;;;6.29;80.09;101223.98;228978;1200;141759;-69
2021/11/15 20:23:00;;;;;;;68.80;34.40;;;;;;;6.32;80.08;101226.30;227788;1199;140435;-69
2021/11/15 20:28:06;;;;;;;77.10;33.90;;;;;;;6.31;79.93;101219.69;227374;1200;142479;-71
2021/11/15 20:33:15;;;;;;;61.40;31.70;;;;;;;6.36;79.72;101223.14;227522;1200;143169;-71
2021/11/15 20:38:21;;;;;;;63.60;33.00;;;;;;;6.41;79.97;101222.10;227260;1199;140862;-71
2021/11/15 20:43:49;;;;;;;54.20;28.10;;;;;;;6.39;79.99;101213.80;226589;1200;140364;-72
2021/11/15 20:48:53;;;;;;;54.50;28.20;;;;;;;6.34;80.07;101209.05;227140;1200;140637;-72
2021/11/15 20:53:58;;;;;;;61.50;33.90;;;;;;;6.37;79.72;101207.68;226900;1199;142034;-70
2021/11/15 20:59:04;;;;;;;60.60;30.60;;;;;;;6.40;79.51;101200.19;226705;1199;140734;-71
2021/11/15 21:04:11;;;;;;;55.50;29.50;;;;;;;6.37;79.91;101199.44;227148;1199;141053;-72
2021/11/15 21:09:48;;;;;;;63.30;29.10;;;;;;;6.35;79.79;101201.59;227217;1200;140849;-72
2021/11/15 21:14:50;;;;;;;58.80;30.70;;;;;;;6.37;79.94;101194.70;226732;1199;140746;-71
2021/11/15 21:19:56;;;;;;;52.40;29.20;;;;;;;6.35;79.79;101190.57;227193;1199;140813;-73
2021/11/15 21:25:33;;;;;;;58.40;29.10;;;;;;;6.34;80.18;101186.89;226609;1199;142134;-72
2021/11/15 21:30:33;;;;;;;53.90;28.20;;;;;;;6.32;79.62;101179.89;227033;1200;141313;-72
2021/11/15 21:35:36;;;;;;;48.20;27.20;;;;;;;6.36;79.51;101177.83;226909;1200;141532;-70
2021/11/15 21:40:52;;;;;;;53.10;28.10;;;;;;;6.36;79.52;101172.36;228265;1199;140127;-69
2021/11/15 21:45:54;;;;;;;54.70;28.50;;;;;;;6.33;79.37;101171.23;226669;1199;139245;-71
2021/11/15 21:51:00;;;;;;;60.80;29.30;;;;;;;6.33;79.39;101166.35;227655;1199;151561;-70
2021/11/15 21:56:04;;;;;;;61.40;31.30;;;;;;;6.35;79.24;101171.20;228617;1199;140308;-73
2021/11/15 22:01:11;;;;;;;46.30;24.80;;;;;;;6.35;79.19;101172.50;228179;1199;140057;-74
2021/11/15 22:06:15;;;;;;;56.10;28.10;;;;;;;6.34;79.30;101172.56;228795;1199;140923;-73
2021/11/15 22:11:54;;;;;;;45.60;26.90;;;;;;;6.39;79.09;101167.98;228477;1199;140403;-71
2021/11/15 22:16:58;;;;;;;48.10;24.90;;;;;;;6.39;79.14;101165.46;227884;1199;139842;-72
2021/11/15 22:22:01;;;;;;;53.50;27.70;;;;;;;6.37;79.12;101161.83;227818;1199;140732;-75
2021/11/15 22:27:05;;;;;;;53.60;29.00;;;;;;;6.39;78.84;101163.91;228239;1199;141518;-70
2021/11/15 22:32:23;;;;;;;41.50;26.00;;;;;;;6.38;79.16;101161.13;228693;1199;140268;-75
2021/11/15 22:37:27;;;;;;;53.30;27.50;;;;;;;6.38;78.71;101157.98;227775;1199;139368;-75
2021/11/15 22:42:47;;;;;;;50.70;27.30;;;;;;;6.43;78.79;101150.89;227968;1199;143768;-71
2021/11/15 22:47:51;;;;;;;43.60;25.80;;;;;;;6.44;79.09;101151.84;227732;1199;139619;-70
2021/11/15 22:53:00;;;;;;;56.80;26.10;;;;;;;6.42;79.04;101149.70;227947;1199;139908;-72
2021/11/15 22:58:09;;;;;;;53.30;29.60;;;;;;;6.42;79.00;101149.48;226726;1199;139219;-72
2021/11/15 23:03:16;;;;;;;51.60;29.20;;;;;;;6.46;78.86;101151.77;227005;1199;140978;-70
2021/11/15 23:08:20;;;;;;;60.50;29.80;;;;;;;6.47;78.83;101149.88;226771;1199;140511;-71
2021/11/15 23:13:24;;;;;;;51.30;28.30;;;;;;;6.45;78.98;101147.00;226320;1200;141467;-70
2021/11/15 23:18:28;;;;;;;53.60;28.80;;;;;;;6.42;78.96;101141.63;226795;1200;140724;-70
2021/11/15 23:23:37;;;;;;;57.30;28.20;;;;;;;6.42;78.84;101136.63;226522;1199;141066;-72
2021/11/15 23:28:40;;;;;;;56.30;29.40;;;;;;;6.40;79.02;101131.85;227277;1200;139537;-71
2021/11/15 23:33:45;;;;;;;47.50;26.20;;;;;;;6.35;78.91;101119.63;227103;1199;141145;-72
2021/11/15 23:38:48;;;;;;;50.70;26.50;;;;;;;6.33;78.91;101119.70;226518;1200;141049;-76
2021/11/15 23:43:53;;;;;;;54.20;29.90;;;;;;;6.37;79.09;101119.61;227169;1199;140891;-76